createdAt,value
2022-08-26T00:01:42.061Z,5.40
2022-08-26T00:04:12.049Z,6.55
2022-08-26T00:06:42.654Z,9.15
2022-08-26T00:09:13.713Z,7.53
2022-08-26T00:11:44.735Z,6.05
2022-08-26T00:14:13.225Z,5.57
2022-08-26T00:16:40.800Z,4.85
2022-08-26T00:19:08.183Z,7.53
2022-08-26T00:21:35.467Z,8.52
2022-08-26T00:24:04.491Z,4.82
2022-08-26T00:26:33.495Z,9.20
2022-08-26T00:29:00.176Z,6.97
2022-08-26T00:31:27.033Z,8.95
2022-08-26T00:33:53.891Z,6.70
2022-08-26T00:36:22.572Z,5.03
2022-08-26T00:38:49.999Z,6.55
2022-08-26T00:41:19.538Z,6.28
2022-08-26T00:43:47.901Z,5.43
2022-08-26T00:46:19.591Z,4.97
2022-08-26T00:48:49.469Z,5.53
2022-08-26T00:51:20.791Z,9.73
2022-08-26T00:53:54.139Z,11.70
2022-08-26T00:56:34.289Z,7.13
2022-08-26T00:59:05.026Z,7.82
2022-08-26T01:01:32.101Z,5.97
2022-08-26T01:04:40.213Z,8.35
2022-08-26T01:07:09.436Z,7.00
2022-08-26T01:09:36.575Z,6.53
2022-08-26T01:12:04.361Z,7.82
2022-08-26T01:14:36.758Z,5.25
2022-08-26T01:17:06.124Z,6.13
2022-08-26T01:19:47.981Z,5.53
2022-08-26T01:22:20.452Z,7.82
2022-08-26T01:24:48.620Z,8.63
2022-08-26T01:27:18.838Z,7.53
2022-08-26T01:29:49.152Z,6.70
2022-08-26T01:32:22.198Z,11.65
2022-08-26T01:34:50.231Z,7.38
2022-08-26T01:37:27.673Z,7.18
2022-08-26T01:39:56.109Z,7.38
2022-08-26T01:42:25.824Z,5.75
2022-08-26T01:44:59.042Z,7.55
2022-08-26T01:47:27.796Z,7.45
2022-08-26T01:49:59.590Z,10.07
2022-08-26T01:52:30.145Z,7.40
2022-08-26T01:54:58.536Z,6.13
2022-08-26T01:57:27.395Z,8.10
2022-08-26T01:59:58.299Z,7.28
2022-08-26T02:02:25.759Z,9.23
2022-08-26T02:05:00.724Z,4.63
2022-08-26T02:07:28.455Z,7.40
2022-08-26T02:09:55.177Z,11.15
2022-08-26T02:12:22.527Z,6.68
2022-08-26T02:14:55.639Z,7.70
2022-08-26T02:17:29.099Z,5.72
2022-08-26T02:19:56.639Z,7.57
2022-08-26T02:22:24.511Z,7.78
2022-08-26T02:25:01.339Z,7.47
2022-08-26T02:27:33.500Z,5.88
2022-08-26T02:30:06.881Z,12.00
2022-08-26T02:32:33.768Z,6.30
2022-08-26T02:35:01.964Z,7.72
2022-08-26T02:37:31.144Z,4.75
2022-08-26T02:39:58.151Z,7.40
2022-08-26T02:42:24.863Z,6.00
2022-08-26T02:44:51.800Z,7.53
2022-08-26T02:47:18.587Z,6.53
2022-08-26T02:49:47.378Z,7.22
2022-08-26T02:52:14.616Z,14.05
2022-08-26T02:54:41.407Z,5.18
2022-08-26T02:57:09.731Z,6.25
2022-08-26T02:59:39.119Z,7.70
2022-08-26T03:02:06.489Z,6.10
2022-08-26T03:04:33.799Z,7.18
2022-08-26T03:07:00.531Z,7.10
2022-08-26T03:09:27.192Z,9.27
2022-08-26T03:11:55.407Z,10.18
2022-08-26T03:14:23.817Z,6.03
2022-08-26T03:16:53.840Z,6.90
2022-08-26T03:19:23.273Z,5.90
2022-08-26T03:21:50.200Z,6.45
2022-08-26T03:24:19.768Z,12.10
2022-08-26T03:26:52.911Z,7.68
2022-08-26T03:29:39.496Z,5.47
2022-08-26T03:32:06.576Z,7.03
2022-08-26T03:34:34.961Z,6.47
2022-08-26T03:37:01.978Z,9.02
2022-08-26T03:39:31.763Z,7.53
2022-08-26T03:41:59.684Z,10.07
2022-08-26T03:44:26.627Z,5.40
2022-08-26T03:46:54.400Z,6.38
2022-08-26T03:49:21.144Z,15.30
2022-08-26T03:51:48.158Z,6.40
2022-08-26T03:54:15.412Z,8.05
2022-08-26T03:56:42.018Z,5.93
2022-08-26T03:59:08.936Z,5.85
2022-08-26T04:01:36.272Z,11.57
2022-08-26T04:04:03.826Z,6.03
2022-08-26T04:06:36.857Z,6.80
2022-08-26T04:09:09.876Z,5.28
2022-08-26T04:11:39.320Z,7.25
2022-08-26T04:14:11.118Z,9.90
2022-08-26T04:16:38.811Z,9.13
2022-08-26T04:19:06.480Z,10.40
2022-08-26T04:21:34.588Z,5.50
2022-08-26T04:24:03.600Z,6.88
2022-08-26T04:26:39.354Z,7.13
2022-08-26T04:29:10.512Z,6.45
2022-08-26T04:31:37.828Z,11.40
2022-08-26T04:34:06.197Z,7.18
2022-08-26T04:36:32.828Z,6.25
2022-08-26T04:39:02.096Z,9.93
2022-08-26T04:41:29.309Z,7.07
2022-08-26T04:43:58.276Z,7.72
2022-08-26T04:46:25.825Z,11.88
2022-08-26T04:48:53.636Z,8.13
2022-08-26T04:51:27.100Z,14.77
2022-08-26T04:53:57.126Z,9.00
2022-08-26T04:56:29.744Z,11.63
2022-08-26T04:58:56.722Z,9.40
2022-08-26T05:01:23.996Z,8.13
2022-08-26T05:03:51.045Z,11.20
2022-08-26T05:06:19.300Z,7.95
2022-08-26T05:08:46.036Z,6.95
2022-08-26T05:11:13.435Z,7.65
2022-08-26T05:13:40.941Z,6.95
2022-08-26T05:16:12.994Z,11.95
2022-08-26T05:18:40.975Z,7.53
2022-08-26T05:21:21.740Z,7.60
2022-08-26T05:23:51.217Z,9.25
2022-08-26T05:26:23.025Z,7.43
2022-08-26T05:28:51.008Z,9.85
2022-08-26T05:31:24.489Z,8.95
2022-08-26T05:33:51.197Z,8.00
2022-08-26T05:36:21.736Z,7.60
2022-08-26T05:38:49.153Z,8.55
2022-08-26T05:41:15.742Z,11.13
2022-08-26T05:43:43.701Z,6.63
2022-08-26T05:46:12.289Z,13.80
2022-08-26T05:48:44.268Z,10.60
2022-08-26T05:51:12.247Z,10.13
2022-08-26T05:53:40.906Z,11.55
2022-08-26T05:56:12.939Z,8.45
2022-08-26T05:58:41.183Z,9.85
2022-08-26T06:01:20.264Z,9.70
2022-08-26T06:03:51.680Z,12.68
2022-08-26T06:06:27.878Z,11.50
2022-08-26T06:08:59.134Z,12.15
2022-08-26T06:11:27.511Z,17.58
2022-08-26T06:13:58.906Z,10.30
2022-08-26T06:16:28.508Z,8.98
2022-08-26T06:18:55.309Z,10.50
2022-08-26T06:21:25.221Z,7.47
2022-08-26T06:24:14.155Z,12.02
2022-08-26T06:26:42.643Z,12.10
2022-08-26T06:29:10.907Z,9.35
2022-08-26T06:31:42.073Z,11.48
2022-08-26T06:34:10.858Z,12.38
2022-08-26T06:36:40.938Z,12.63
2022-08-26T06:39:13.112Z,11.32
2022-08-26T06:41:44.870Z,8.63
2022-08-26T06:44:12.759Z,11.73
2022-08-26T06:46:40.008Z,13.77
2022-08-26T06:49:06.685Z,15.50
2022-08-26T06:51:38.177Z,9.90
2022-08-26T06:54:05.977Z,14.70
2022-08-26T06:56:40.309Z,10.02
2022-08-26T06:59:08.232Z,10.18
2022-08-26T07:01:38.818Z,8.77
2022-08-26T07:04:10.721Z,8.77
2022-08-26T07:06:40.266Z,11.32
2022-08-26T07:09:09.871Z,12.85
2022-08-26T07:11:38.642Z,9.52
2022-08-26T07:14:06.129Z,9.18
2022-08-26T07:16:33.084Z,7.90
2022-08-26T07:18:59.768Z,12.82
2022-08-26T07:21:30.009Z,14.15
2022-08-26T07:24:01.433Z,8.68
2022-08-26T07:26:32.428Z,10.25
2022-08-26T07:28:59.757Z,9.57
2022-08-26T07:31:28.358Z,11.70
2022-08-26T07:33:56.719Z,12.50
2022-08-26T07:36:25.708Z,9.80
2022-08-26T07:38:52.496Z,9.75
2022-08-26T07:41:22.673Z,7.97
2022-08-26T07:43:50.387Z,10.35
2022-08-26T07:46:27.417Z,8.65
2022-08-26T07:48:57.739Z,9.52
2022-08-26T07:51:25.168Z,9.15
2022-08-26T07:53:52.920Z,9.50
2022-08-26T07:56:21.093Z,8.15
2022-08-26T07:58:51.290Z,13.25
2022-08-26T08:01:23.632Z,7.15
2022-08-26T08:03:52.508Z,10.18
2022-08-26T08:06:21.000Z,11.40
2022-08-26T08:08:50.756Z,12.82
2022-08-26T08:11:21.353Z,7.95
2022-08-26T08:13:48.730Z,11.98
2022-08-26T08:16:15.712Z,12.52
2022-08-26T08:18:42.413Z,11.88
2022-08-26T08:21:21.913Z,13.55
2022-08-26T08:23:52.897Z,8.63
2022-08-26T08:26:20.156Z,9.77
2022-08-26T08:28:47.740Z,10.35
2022-08-26T08:34:16.471Z,6.90
2022-08-26T08:36:46.426Z,12.73
2022-08-26T08:39:13.513Z,11.55
2022-08-26T08:41:43.531Z,9.20
2022-08-26T08:44:19.072Z,5.50
2022-08-26T08:46:48.837Z,7.05
2022-08-26T08:49:16.882Z,11.35
2022-08-26T08:51:54.230Z,7.68
2022-08-26T08:54:22.909Z,5.65
2022-08-26T08:57:01.597Z,4.93
2022-08-26T08:59:34.072Z,4.97
2022-08-26T09:02:04.684Z,5.70
2022-08-26T09:04:57.943Z,8.68
2022-08-26T09:07:42.811Z,6.65
2022-08-26T09:10:36.887Z,5.55
2022-08-26T09:13:09.242Z,5.97
2022-08-26T09:16:25.912Z,5.07
2022-08-26T09:19:24.506Z,7.43
2022-08-26T09:22:00.198Z,4.75
2022-08-26T09:24:29.212Z,6.50
2022-08-26T09:26:58.822Z,11.95
2022-08-26T09:29:30.929Z,9.23
2022-08-26T09:32:23.977Z,6.10
2022-08-26T09:35:03.656Z,6.13
2022-08-26T09:37:42.910Z,7.13
2022-08-26T09:40:27.607Z,6.32
2022-08-26T09:43:10.003Z,8.10
2022-08-26T09:45:38.859Z,7.15
2022-08-26T09:48:08.066Z,8.23
2022-08-26T09:50:57.628Z,8.45
2022-08-26T09:53:30.661Z,9.93
2022-08-26T09:56:21.240Z,7.70
2022-08-26T09:58:50.222Z,11.93
2022-08-26T10:01:23.211Z,14.38
2022-08-26T10:03:51.277Z,9.73
2022-08-26T10:06:17.975Z,9.88
2022-08-26T10:08:51.051Z,13.38
2022-08-26T10:11:39.844Z,9.30
2022-08-26T10:14:20.856Z,14.23
2022-08-26T10:17:14.809Z,13.32
2022-08-26T10:19:56.803Z,8.30
2022-08-26T10:22:53.248Z,10.63
2022-08-26T10:25:42.394Z,9.73
2022-08-26T10:28:23.119Z,11.85
2022-08-26T10:31:04.495Z,13.38
2022-08-26T10:33:31.412Z,7.88
2022-08-26T10:36:03.015Z,9.52
2022-08-26T10:38:34.654Z,10.98
2022-08-26T10:41:10.601Z,11.10
2022-08-26T10:43:51.247Z,10.07
2022-08-26T10:46:27.038Z,11.90
2022-08-26T10:49:00.547Z,12.95
2022-08-26T10:51:36.327Z,8.50
2022-08-26T10:54:15.984Z,11.98
2022-08-26T10:57:12.340Z,10.70
2022-08-26T10:59:52.685Z,12.82
2022-08-26T11:02:47.189Z,8.90
2022-08-26T11:05:23.420Z,18.38
2022-08-26T11:07:53.892Z,11.68
2022-08-26T11:10:21.732Z,10.32
2022-08-26T11:12:54.431Z,14.35
2022-08-26T11:15:24.793Z,12.60
2022-08-26T11:17:51.554Z,12.80
2022-08-26T11:20:29.887Z,13.68
2022-08-26T11:23:22.688Z,14.10
2022-08-26T11:25:56.266Z,15.18
2022-08-26T11:28:39.890Z,10.98
2022-08-26T11:31:25.218Z,14.07
2022-08-26T11:34:00.207Z,16.38
2022-08-26T11:36:57.213Z,8.70
2022-08-26T11:39:38.670Z,13.80
2022-08-26T11:42:33.056Z,13.30
2022-08-26T11:45:05.343Z,11.75
2022-08-26T11:47:32.687Z,10.10
2022-08-26T11:50:35.383Z,13.98
2022-08-26T11:53:06.332Z,19.98
2022-08-26T11:55:41.795Z,15.95
2022-08-26T11:58:12.374Z,11.13
2022-08-26T12:01:19.643Z,13.38
2022-08-26T12:03:49.945Z,13.55
2022-08-26T12:06:28.449Z,14.05
2022-08-26T12:09:01.300Z,13.32
2022-08-26T12:11:34.958Z,11.60
2022-08-26T12:14:07.401Z,10.95
2022-08-26T12:16:39.567Z,15.45
2022-08-26T12:19:22.223Z,16.08
2022-08-26T12:21:58.711Z,24.75
2022-08-26T12:24:25.325Z,11.75
2022-08-26T12:27:18.267Z,17.92
2022-08-26T12:29:59.444Z,8.85
2022-08-26T12:32:26.449Z,12.57
2022-08-26T12:34:55.261Z,14.18
2022-08-26T12:37:22.303Z,17.98
2022-08-26T12:39:49.209Z,15.02
2022-08-26T12:42:15.869Z,17.55
2022-08-26T12:44:53.756Z,12.20
2022-08-26T12:47:42.492Z,16.05
2022-08-26T12:50:20.447Z,13.52
2022-08-26T12:53:11.340Z,18.65
2022-08-26T12:55:44.891Z,17.02
2022-08-26T12:58:22.276Z,13.13
2022-08-26T13:00:55.294Z,13.10
2022-08-26T13:03:33.931Z,13.27
2022-08-26T13:06:22.112Z,14.73
2022-08-26T13:09:20.672Z,15.90
2022-08-26T13:11:47.457Z,13.15
2022-08-26T13:14:21.040Z,15.02
2022-08-26T13:16:51.906Z,12.68
2022-08-26T13:19:25.305Z,13.07
2022-08-26T13:21:55.230Z,12.55
2022-08-26T13:24:33.907Z,11.57
2022-08-26T13:27:01.147Z,11.77
2022-08-26T13:29:27.779Z,11.85
2022-08-26T13:31:55.491Z,15.55
2022-08-26T13:34:23.131Z,18.17
2022-08-26T13:36:53.277Z,11.90
2022-08-26T13:39:21.217Z,15.95
2022-08-26T13:41:47.992Z,12.38
2022-08-26T13:44:14.732Z,13.68
2022-08-26T13:46:41.480Z,13.93
2022-08-26T13:49:08.683Z,9.90
2022-08-26T13:51:35.727Z,15.70
2022-08-26T13:54:02.304Z,12.10
2022-08-26T13:56:31.964Z,13.35
2022-08-26T13:58:59.956Z,21.38
2022-08-26T14:01:30.036Z,12.27
2022-08-26T14:03:57.271Z,12.35
2022-08-26T14:06:24.896Z,14.18
2022-08-26T14:08:51.675Z,20.25
2022-08-26T14:11:18.783Z,14.85
2022-08-26T14:13:45.396Z,18.15
2022-08-26T14:16:20.512Z,15.38
2022-08-26T14:18:50.722Z,16.25
2022-08-26T14:21:18.105Z,15.48
2022-08-26T14:23:44.709Z,12.52
2022-08-26T14:26:12.010Z,15.35
2022-08-26T14:28:55.273Z,15.95
2022-08-26T14:31:26.680Z,15.65
2022-08-26T14:33:53.449Z,20.83
2022-08-26T14:36:31.230Z,17.80
2022-08-26T14:39:01.880Z,13.88
2022-08-26T14:41:30.947Z,16.20
2022-08-26T14:44:02.209Z,9.05
2022-08-26T14:46:32.150Z,7.07
2022-08-26T14:49:01.464Z,7.10
2022-08-26T14:51:29.485Z,7.18
2022-08-26T14:54:14.461Z,9.18
2022-08-26T14:56:46.019Z,10.38
2022-08-26T14:59:14.614Z,7.10
2022-08-26T15:01:41.616Z,8.13
2022-08-26T15:04:08.264Z,5.32
2022-08-26T15:06:35.797Z,8.07
2022-08-26T15:09:03.491Z,6.65
2022-08-26T15:11:30.304Z,6.90
2022-08-26T15:13:57.248Z,8.07
2022-08-26T15:16:24.540Z,8.70
2022-08-26T15:18:51.615Z,7.78
2022-08-26T15:21:20.229Z,8.82
2022-08-26T15:23:49.525Z,8.35
2022-08-26T15:26:16.988Z,8.68
2022-08-26T15:28:44.343Z,6.68
2022-08-26T15:31:11.180Z,6.60
2022-08-26T15:33:38.168Z,8.00
2022-08-26T15:36:07.205Z,7.15
2022-08-26T15:38:36.532Z,8.00
2022-08-26T15:41:05.433Z,7.38
2022-08-26T15:43:32.946Z,7.25
2022-08-26T15:45:59.887Z,12.70
2022-08-26T15:48:26.688Z,8.07
2022-08-26T15:51:00.150Z,8.52
2022-08-26T15:53:29.466Z,5.55
2022-08-26T15:55:57.143Z,5.95
2022-08-26T15:58:26.399Z,6.57
2022-08-26T16:00:54.332Z,4.85
2022-08-26T16:03:21.824Z,4.70
2022-08-26T16:05:48.951Z,4.80
2022-08-26T16:08:15.871Z,4.93
2022-08-26T16:10:49.764Z,5.78
2022-08-26T16:13:18.962Z,3.38
2022-08-26T16:15:46.386Z,4.75
2022-08-26T16:18:15.309Z,4.97
2022-08-26T16:20:58.549Z,6.03
2022-08-26T16:23:37.280Z,4.68
2022-08-26T16:26:11.881Z,2.97
2022-08-26T16:28:39.456Z,3.03
2022-08-26T16:31:07.061Z,4.20
2022-08-26T16:33:33.925Z,6.20
2022-08-26T16:36:00.545Z,4.15
2022-08-26T16:38:27.287Z,10.60
2022-08-26T16:40:53.897Z,8.27
2022-08-26T16:43:20.504Z,5.60
2022-08-26T16:45:47.103Z,10.40
2022-08-26T16:48:13.769Z,7.22
2022-08-26T16:50:41.800Z,10.55
2022-08-26T16:55:40.155Z,9.75
2022-08-26T16:58:07.025Z,10.32
2022-08-26T17:00:34.501Z,11.20
2022-08-26T17:03:01.814Z,11.48
2022-08-26T17:05:29.220Z,15.40
2022-08-26T17:07:58.208Z,11.13
2022-08-26T17:10:26.605Z,13.57
2022-08-26T17:12:54.133Z,10.75
2022-08-26T17:15:23.612Z,9.65
2022-08-26T17:17:51.993Z,9.52
2022-08-26T17:20:19.827Z,12.65
2022-08-26T17:22:49.503Z,7.90
2022-08-26T17:25:22.280Z,9.77
2022-08-26T17:27:50.494Z,14.95
2022-08-26T17:30:18.028Z,14.55
2022-08-26T17:32:45.496Z,9.55
2022-08-26T17:35:13.599Z,10.13
2022-08-26T17:37:41.005Z,10.57
2022-08-26T17:40:12.092Z,8.57
2022-08-26T17:42:39.997Z,8.43
2022-08-26T17:45:08.205Z,12.27
2022-08-26T17:47:35.385Z,7.90
2022-08-26T17:50:02.493Z,8.80
2022-08-26T17:52:30.392Z,10.27
2022-08-26T17:54:57.574Z,7.93
2022-08-26T17:57:25.790Z,13.55
2022-08-26T17:59:53.590Z,10.35
2022-08-26T18:02:24.851Z,7.80
2022-08-26T18:04:51.645Z,9.70
2022-08-26T18:07:21.129Z,9.45
2022-08-26T18:09:47.703Z,9.93
2022-08-26T18:12:14.870Z,8.38
2022-08-26T18:14:41.465Z,10.27
2022-08-26T18:17:08.309Z,6.30
2022-08-26T18:19:35.158Z,10.27
2022-08-26T18:22:02.172Z,13.27
2022-08-26T18:24:30.395Z,7.90
2022-08-26T18:26:57.337Z,7.85
2022-08-26T18:29:25.407Z,6.55
2022-08-26T18:31:52.408Z,7.97
2022-08-26T18:34:19.707Z,8.30
2022-08-26T18:36:46.773Z,5.97
2022-08-26T18:39:14.791Z,8.13
2022-08-26T18:41:44.848Z,9.85
2022-08-26T18:44:13.926Z,6.93
2022-08-26T18:46:41.449Z,6.78
2022-08-26T18:49:09.735Z,9.30
2022-08-26T18:51:37.797Z,7.72
2022-08-26T18:54:06.923Z,7.70
2022-08-26T18:56:35.693Z,9.73
2022-08-26T18:59:02.828Z,15.07
2022-08-26T19:01:30.985Z,9.05
2022-08-26T19:03:59.480Z,6.93
2022-08-26T19:06:28.197Z,9.98
2022-08-26T19:08:55.819Z,8.63
2022-08-26T19:11:31.319Z,8.45
2022-08-26T19:14:03.673Z,8.70
2022-08-26T19:16:31.099Z,10.05
2022-08-26T19:18:58.819Z,7.10
2022-08-26T19:21:25.552Z,12.77
2022-08-26T19:23:57.069Z,12.20
2022-08-26T19:26:24.389Z,8.43
2022-08-26T19:28:51.326Z,9.52
2022-08-26T19:31:17.980Z,18.33
2022-08-26T19:33:45.405Z,9.75
2022-08-26T19:36:18.259Z,10.68
2022-08-26T19:38:45.794Z,7.20
2022-08-26T19:41:14.846Z,10.05
2022-08-26T19:43:42.233Z,9.15
2022-08-26T19:46:16.503Z,12.20
2022-08-26T19:48:44.305Z,10.80
2022-08-26T19:51:15.656Z,9.85
2022-08-26T19:53:43.952Z,7.65
2022-08-26T19:56:11.115Z,8.95
2022-08-26T19:58:37.712Z,10.27
2022-08-26T20:01:05.712Z,14.88
2022-08-26T20:03:33.556Z,11.65
2022-08-26T20:06:02.539Z,11.05
2022-08-26T20:08:29.207Z,11.35
2022-08-26T20:10:58.428Z,10.93
2022-08-26T20:13:25.261Z,11.68
2022-08-26T20:15:51.833Z,9.10
2022-08-26T20:18:36.935Z,10.73
2022-08-26T20:21:22.724Z,12.82
2022-08-26T20:23:49.331Z,9.30
2022-08-26T20:26:15.914Z,11.45
2022-08-26T20:28:42.511Z,12.88
2022-08-26T20:31:09.527Z,11.20
2022-08-26T20:33:46.073Z,12.25
2022-08-26T20:36:14.173Z,13.88
2022-08-26T20:38:40.860Z,10.25
2022-08-26T20:41:07.488Z,12.32
2022-08-26T20:43:34.133Z,9.70
2022-08-26T20:46:00.860Z,10.10
2022-08-26T20:48:27.543Z,10.63
2022-08-26T20:50:59.113Z,10.48
2022-08-26T20:53:28.017Z,9.85
2022-08-26T20:55:59.031Z,11.55
2022-08-26T20:58:26.175Z,9.88
2022-08-26T21:00:52.935Z,12.32
2022-08-26T21:03:19.647Z,12.00
2022-08-26T21:05:46.228Z,12.05
2022-08-26T21:08:13.108Z,12.18
2022-08-26T21:10:40.321Z,12.93
2022-08-26T21:13:07.856Z,12.25
2022-08-26T21:15:35.299Z,9.77
2022-08-26T21:18:03.225Z,11.43
2022-08-26T21:20:30.837Z,10.15
2022-08-26T21:22:57.456Z,8.85
2022-08-26T21:25:24.692Z,10.65
2022-08-26T21:27:51.400Z,12.20
2022-08-26T21:30:19.394Z,9.57
2022-08-26T21:32:46.073Z,12.70
2022-08-26T21:35:12.741Z,15.77
2022-08-26T21:37:39.619Z,12.57
2022-08-26T21:40:07.548Z,10.65
2022-08-26T21:42:34.843Z,10.40
2022-08-26T21:45:02.821Z,12.05
2022-08-26T21:47:31.987Z,10.80
2022-08-26T21:49:58.903Z,11.32
2022-08-26T21:52:26.309Z,11.77
2022-08-26T21:55:00.527Z,13.32
2022-08-26T21:57:28.219Z,14.85
2022-08-26T21:59:55.449Z,14.05
2022-08-26T22:02:22.636Z,14.52
2022-08-26T22:04:49.561Z,13.55
2022-08-26T22:07:17.900Z,14.45
2022-08-26T22:09:44.962Z,12.90
2022-08-26T22:12:12.579Z,9.05
2022-08-26T22:14:39.674Z,13.23
2022-08-26T22:17:06.738Z,11.40
2022-08-26T22:19:34.089Z,12.63
2022-08-26T22:22:12.917Z,12.05
2022-08-26T22:24:39.904Z,13.73
2022-08-26T22:27:06.540Z,11.43
2022-08-26T22:29:33.155Z,13.32
2022-08-26T22:32:00.244Z,13.27
2022-08-26T22:34:27.218Z,14.30
2022-08-26T22:36:54.319Z,15.82
2022-08-26T22:39:23.695Z,13.68
2022-08-26T22:41:51.566Z,13.02
2022-08-26T22:44:20.353Z,14.02
2022-08-26T22:46:48.141Z,12.13
2022-08-26T22:49:16.339Z,12.18
2022-08-26T22:51:44.472Z,13.73
2022-08-26T22:54:12.651Z,11.68
2022-08-26T22:56:40.172Z,14.30
2022-08-26T22:59:07.787Z,12.55
2022-08-26T23:01:38.920Z,13.68
2022-08-26T23:04:06.628Z,16.08
2022-08-26T23:06:41.109Z,13.07
2022-08-26T23:09:08.932Z,12.70
2022-08-26T23:11:35.591Z,18.77
2022-08-26T23:14:06.377Z,18.27
2022-08-26T23:16:39.533Z,13.75
2022-08-26T23:19:10.794Z,17.50
2022-08-26T23:21:38.292Z,14.15
2022-08-26T23:24:06.213Z,15.15
2022-08-26T23:26:34.196Z,18.00
2022-08-26T23:29:01.848Z,17.85
2022-08-26T23:31:28.560Z,13.70
2022-08-26T23:34:13.976Z,14.27
2022-08-26T23:36:43.323Z,18.98
2022-08-26T23:39:13.250Z,13.93
2022-08-26T23:41:39.924Z,17.27
2022-08-26T23:44:06.551Z,21.63
2022-08-26T23:46:34.557Z,14.77
2022-08-26T23:49:01.794Z,15.57
2022-08-26T23:51:46.840Z,17.70
2022-08-26T23:54:14.859Z,14.35
2022-08-26T23:56:42.679Z,24.33
2022-08-26T23:59:09.253Z,18.98
